createdAt,value
2022-12-29T00:00:07.724Z,633.91
2022-12-29T00:00:18.770Z,633.76
2022-12-29T00:00:29.817Z,633.48
2022-12-29T00:00:40.788Z,633.37
2022-12-29T00:00:51.820Z,633.32
2022-12-29T00:01:03.793Z,633.01
2022-12-29T00:01:15.757Z,632.94
2022-12-29T00:01:26.764Z,633.01
2022-12-29T00:01:37.751Z,633.30
2022-12-29T00:01:48.735Z,633.51
2022-12-29T00:01:59.748Z,633.58
2022-12-29T00:02:10.796Z,633.40
2022-12-29T00:02:22.810Z,633.45
2022-12-29T00:02:34.835Z,633.38
2022-12-29T00:02:45.841Z,633.33
2022-12-29T00:02:57.909Z,633.47
2022-12-29T00:03:09.929Z,633.63
2022-12-29T00:03:20.871Z,633.57
2022-12-29T00:03:32.839Z,633.79
2022-12-29T00:03:44.863Z,633.70
2022-12-29T00:03:56.806Z,633.74
2022-12-29T00:04:14.337Z,633.71
2022-12-29T00:04:20.819Z,633.82
2022-12-29T00:04:30.742Z,633.74
2022-12-29T00:04:41.723Z,633.72
2022-12-29T00:04:52.733Z,633.46
2022-12-29T00:05:03.720Z,633.44
2022-12-29T00:05:14.797Z,633.58
2022-12-29T00:05:26.756Z,633.23
2022-12-29T00:05:37.765Z,633.47
2022-12-29T00:05:48.750Z,633.44
2022-12-29T00:05:59.775Z,633.39
2022-12-29T00:06:11.740Z,633.98
2022-12-29T00:06:22.734Z,634.06
2022-12-29T00:06:33.735Z,634.16
2022-12-29T00:06:44.731Z,634.08
2022-12-29T00:06:55.757Z,634.41
2022-12-29T00:07:06.761Z,633.74
2022-12-29T00:07:17.743Z,633.48
2022-12-29T00:07:29.733Z,633.45
2022-12-29T00:07:40.740Z,633.85
2022-12-29T00:07:51.755Z,633.88
2022-12-29T00:08:02.777Z,633.90
2022-12-29T00:08:14.733Z,633.92
2022-12-29T00:08:25.732Z,633.95
2022-12-29T00:08:36.754Z,633.90
2022-12-29T00:08:47.724Z,633.56
2022-12-29T00:10:08.812Z,634.27
2022-12-29T00:10:20.747Z,634.23
2022-12-29T00:10:31.730Z,634.43
2022-12-29T00:10:42.730Z,634.65
2022-12-29T00:10:53.749Z,634.90
2022-12-29T00:11:04.764Z,634.74
2022-12-29T00:11:15.763Z,634.44
2022-12-29T00:11:27.733Z,634.10
2022-12-29T00:11:38.750Z,634.19
2022-12-29T00:11:49.711Z,634.26
2022-12-29T00:12:00.813Z,634.42
2022-12-29T00:12:12.788Z,634.28
2022-12-29T00:12:24.748Z,634.51
2022-12-29T00:12:35.743Z,634.51
2022-12-29T00:12:46.771Z,634.27
2022-12-29T00:12:57.742Z,634.33
2022-12-29T00:13:08.777Z,634.52
2022-12-29T00:13:19.768Z,634.79
2022-12-29T00:13:31.748Z,634.88
2022-12-29T00:13:42.735Z,634.47
2022-12-29T00:13:53.739Z,634.15
2022-12-29T00:14:04.733Z,634.37
2022-12-29T00:14:15.753Z,634.20
2022-12-29T00:14:26.762Z,635.11
2022-12-29T00:14:37.733Z,635.44
2022-12-29T00:14:48.808Z,635.04
2022-12-29T00:15:00.756Z,635.26
2022-12-29T00:15:12.742Z,635.17
2022-12-29T00:15:23.734Z,635.29
2022-12-29T00:15:34.784Z,635.26
2022-12-29T00:15:45.830Z,634.89
2022-12-29T00:15:57.764Z,634.63
2022-12-29T00:16:08.889Z,634.66
2022-12-29T00:16:20.835Z,635.14
2022-12-29T00:16:31.864Z,634.90
2022-12-29T00:16:42.703Z,634.94
2022-12-29T00:16:53.708Z,635.24
2022-12-29T00:17:04.729Z,635.02
2022-12-29T00:17:15.729Z,634.69
2022-12-29T00:17:26.780Z,635.02
2022-12-29T00:17:37.748Z,635.44
2022-12-29T00:17:48.751Z,635.41
2022-12-29T00:17:59.717Z,634.97
2022-12-29T00:18:10.743Z,635.10
2022-12-29T00:18:21.716Z,635.78
2022-12-29T00:18:32.738Z,635.49
2022-12-29T00:18:43.740Z,634.96
2022-12-29T00:18:54.721Z,634.99
2022-12-29T00:19:05.799Z,635.20
2022-12-29T00:19:16.764Z,635.09
2022-12-29T00:19:27.736Z,635.15
2022-12-29T00:19:38.737Z,634.98
2022-12-29T00:19:49.734Z,635.13
2022-12-29T00:20:00.717Z,635.85
2022-12-29T00:20:11.810Z,635.93
2022-12-29T00:20:23.792Z,635.81
2022-12-29T00:20:35.727Z,635.42
2022-12-29T00:20:46.820Z,635.71
2022-12-29T00:20:58.800Z,635.81
2022-12-29T00:21:10.736Z,635.76
2022-12-29T00:21:21.706Z,635.47
2022-12-29T00:21:32.779Z,635.14
2022-12-29T00:21:44.746Z,634.91
2022-12-29T00:21:55.777Z,634.90
2022-12-29T00:22:06.757Z,634.80
2022-12-29T00:22:17.737Z,635.03
2022-12-29T00:22:28.767Z,634.99
2022-12-29T00:22:40.739Z,635.18
2022-12-29T00:22:51.728Z,634.98
2022-12-29T00:23:02.814Z,634.93
2022-12-29T00:23:14.778Z,635.47
2022-12-29T00:23:25.771Z,635.36
2022-12-29T00:23:37.732Z,635.14
2022-12-29T00:23:48.718Z,635.21
2022-12-29T00:23:59.719Z,635.44
2022-12-29T00:24:10.736Z,635.52
2022-12-29T00:24:21.719Z,635.13
2022-12-29T00:24:32.794Z,635.64
2022-12-29T00:24:43.774Z,635.70
2022-12-29T00:24:55.728Z,635.60
2022-12-29T00:25:06.743Z,635.61
2022-12-29T00:25:18.757Z,635.03
2022-12-29T00:25:29.742Z,635.21
2022-12-29T00:25:40.811Z,635.21
2022-12-29T00:25:52.749Z,635.17
2022-12-29T00:26:03.746Z,635.15
2022-12-29T00:26:14.727Z,635.24
2022-12-29T00:26:25.744Z,635.37
2022-12-29T00:26:36.716Z,635.08
2022-12-29T00:26:47.789Z,635.18
2022-12-29T00:26:58.753Z,635.33
2022-12-29T00:27:09.724Z,635.37
2022-12-29T00:27:20.706Z,635.65
2022-12-29T00:27:31.718Z,635.34
2022-12-29T00:27:42.795Z,634.80
2022-12-29T00:27:54.765Z,635.18
2022-12-29T00:28:07.625Z,635.22
2022-12-29T00:28:17.776Z,635.16
2022-12-29T00:28:29.758Z,634.83
2022-12-29T00:28:41.771Z,634.61
2022-12-29T00:28:53.737Z,634.60
2022-12-29T00:29:04.741Z,634.49
2022-12-29T00:29:15.732Z,634.98
2022-12-29T00:29:26.707Z,634.89
2022-12-29T00:29:37.776Z,635.44
2022-12-29T00:29:49.763Z,635.28
2022-12-29T00:30:00.756Z,635.34
2022-12-29T00:30:11.750Z,635.31
2022-12-29T00:30:22.724Z,635.44
2022-12-29T00:30:33.720Z,635.31
2022-12-29T00:30:44.716Z,635.18
2022-12-29T00:30:55.850Z,635.20
2022-12-29T00:31:07.887Z,634.65
2022-12-29T00:31:19.851Z,634.38
2022-12-29T00:31:30.803Z,634.95
2022-12-29T00:31:42.871Z,634.94
2022-12-29T00:31:53.759Z,635.16
2022-12-29T00:32:04.774Z,635.06
2022-12-29T00:32:16.726Z,635.09
2022-12-29T00:32:27.708Z,635.01
2022-12-29T00:32:38.792Z,634.47
2022-12-29T00:32:50.777Z,634.87
2022-12-29T00:33:01.787Z,634.79
2022-12-29T00:33:12.771Z,634.51
2022-12-29T00:33:23.760Z,634.28
2022-12-29T00:33:34.774Z,634.44
2022-12-29T00:33:45.762Z,634.52
2022-12-29T00:33:56.740Z,634.54
2022-12-29T00:34:07.755Z,635.06
2022-12-29T00:34:18.740Z,634.91
2022-12-29T00:34:29.737Z,634.68
2022-12-29T00:34:40.750Z,634.78
2022-12-29T00:34:51.731Z,634.79
2022-12-29T00:35:02.759Z,634.94
2022-12-29T00:35:13.741Z,634.93
2022-12-29T00:35:25.731Z,634.72
2022-12-29T00:35:36.722Z,634.89
2022-12-29T00:35:47.817Z,634.86
2022-12-29T00:35:59.757Z,634.91
2022-12-29T00:36:10.738Z,634.65
2022-12-29T00:36:21.743Z,635.31
2022-12-29T00:36:32.719Z,634.87
2022-12-29T00:36:43.786Z,634.41
2022-12-29T00:36:55.770Z,634.69
2022-12-29T00:37:07.755Z,634.57
2022-12-29T00:37:18.731Z,634.25
2022-12-29T00:37:29.736Z,634.85
2022-12-29T00:37:40.761Z,634.65
2022-12-29T00:37:51.741Z,635.24
2022-12-29T00:38:02.722Z,635.19
2022-12-29T00:38:13.819Z,635.27
2022-12-29T00:38:25.768Z,635.28
2022-12-29T00:38:37.752Z,635.10
2022-12-29T00:38:48.745Z,634.95
2022-12-29T00:38:59.730Z,634.91
2022-12-29T00:39:10.722Z,635.18
2022-12-29T00:39:21.715Z,634.84
2022-12-29T00:39:32.731Z,634.74
2022-12-29T00:39:43.789Z,634.82
2022-12-29T00:39:55.744Z,634.88
2022-12-29T00:40:06.765Z,634.98
2022-12-29T00:40:18.739Z,635.24
2022-12-29T00:40:29.741Z,635.51
2022-12-29T00:40:40.828Z,635.63
2022-12-29T00:40:52.766Z,635.99
2022-12-29T00:41:04.729Z,636.06
2022-12-29T00:41:15.728Z,636.05
2022-12-29T00:41:26.733Z,635.56
2022-12-29T00:41:37.719Z,635.26
2022-12-29T00:41:48.794Z,635.46
2022-12-29T00:42:00.769Z,635.49
2022-12-29T00:42:12.743Z,635.38
2022-12-29T00:42:23.737Z,635.59
2022-12-29T00:42:34.731Z,635.96
2022-12-29T00:42:45.716Z,636.10
2022-12-29T00:42:56.731Z,635.52
2022-12-29T00:43:07.799Z,634.97
2022-12-29T00:43:19.774Z,635.94
2022-12-29T00:43:30.753Z,635.97
2022-12-29T00:43:41.747Z,635.12
2022-12-29T00:43:52.744Z,634.79
2022-12-29T00:44:03.727Z,635.44
2022-12-29T00:44:14.722Z,635.94
2022-12-29T00:44:25.788Z,636.34
2022-12-29T00:44:37.736Z,635.98
2022-12-29T00:44:48.737Z,635.90
2022-12-29T00:44:59.717Z,635.97
2022-12-29T00:45:10.812Z,635.56
2022-12-29T00:45:22.780Z,635.88
2022-12-29T00:45:34.773Z,635.58
2022-12-29T00:45:45.766Z,635.29
2022-12-29T00:45:56.761Z,634.98
2022-12-29T00:46:07.823Z,635.03
2022-12-29T00:46:20.208Z,635.36
2022-12-29T00:46:30.795Z,635.20
2022-12-29T00:46:42.787Z,635.71
2022-12-29T00:46:53.810Z,636.45
2022-12-29T00:47:05.818Z,636.34
2022-12-29T00:47:16.871Z,636.29
2022-12-29T00:47:28.765Z,636.34
2022-12-29T00:47:39.756Z,635.84
2022-12-29T00:47:50.739Z,635.46
2022-12-29T00:48:01.749Z,635.97
2022-12-29T00:48:12.781Z,636.29
2022-12-29T00:48:23.747Z,635.92
2022-12-29T00:48:34.758Z,635.39
2022-12-29T00:48:45.732Z,635.49
2022-12-29T00:48:56.800Z,635.78
2022-12-29T00:49:08.781Z,635.50
2022-12-29T00:49:19.781Z,635.58
2022-12-29T00:49:30.763Z,635.44
2022-12-29T00:49:41.772Z,635.83
2022-12-29T00:49:52.746Z,635.96
2022-12-29T00:50:03.750Z,636.10
2022-12-29T00:50:14.758Z,636.10
2022-12-29T00:50:25.774Z,635.91
2022-12-29T00:50:36.753Z,635.65
2022-12-29T00:50:47.747Z,635.55
2022-12-29T00:50:58.720Z,635.78
2022-12-29T00:51:09.714Z,635.56
2022-12-29T00:51:20.812Z,635.78
2022-12-29T00:51:32.766Z,635.20
2022-12-29T00:51:43.759Z,635.39
2022-12-29T00:51:54.751Z,635.37
2022-12-29T00:52:05.765Z,635.43
2022-12-29T00:52:17.753Z,635.75
2022-12-29T00:52:28.747Z,635.59
2022-12-29T00:52:39.755Z,636.13
2022-12-29T00:52:50.738Z,636.08
2022-12-29T00:53:01.754Z,635.84
2022-12-29T00:53:12.750Z,635.82
2022-12-29T00:53:23.719Z,635.73
2022-12-29T00:53:34.739Z,636.01
2022-12-29T00:53:45.750Z,635.80
2022-12-29T00:53:56.756Z,635.55
2022-12-29T00:54:07.735Z,635.82
2022-12-29T00:54:18.833Z,635.72
2022-12-29T00:54:30.783Z,635.47
2022-12-29T00:54:42.759Z,635.50
2022-12-29T00:54:53.743Z,635.46
2022-12-29T00:55:04.787Z,635.58
2022-12-29T00:55:16.731Z,635.20
2022-12-29T00:55:27.764Z,635.25
2022-12-29T00:55:39.786Z,635.55
2022-12-29T00:55:50.743Z,635.54
2022-12-29T00:56:01.729Z,635.50
2022-12-29T00:56:24.541Z,635.18
2022-12-29T00:56:25.692Z,635.59
2022-12-29T00:56:36.769Z,635.33
2022-12-29T00:56:48.787Z,636.56
2022-12-29T00:56:59.754Z,635.81
2022-12-29T00:57:10.727Z,636.37
2022-12-29T00:57:21.796Z,636.00
2022-12-29T00:57:32.767Z,636.04
2022-12-29T00:57:43.729Z,635.63
2022-12-29T00:57:54.704Z,635.54
2022-12-29T00:58:05.772Z,635.78
2022-12-29T00:58:16.751Z,635.57
2022-12-29T00:58:27.715Z,635.30
2022-12-29T00:58:38.788Z,635.38
2022-12-29T00:58:49.777Z,635.51
2022-12-29T00:59:00.753Z,635.22
2022-12-29T00:59:11.760Z,634.65
2022-12-29T00:59:22.732Z,635.56
2022-12-29T00:59:33.800Z,635.47
2022-12-29T00:59:45.714Z,635.11
2022-12-29T00:59:56.779Z,635.26
2022-12-29T01:00:07.783Z,634.91
2022-12-29T01:00:18.747Z,634.97
2022-12-29T01:00:29.749Z,634.78
2022-12-29T01:00:40.797Z,634.35
2022-12-29T01:00:51.803Z,634.08
2022-12-29T01:01:02.943Z,634.27
2022-12-29T01:01:14.867Z,634.28
2022-12-29T01:01:26.949Z,634.45
2022-12-29T01:01:39.011Z,634.68
2022-12-29T01:01:50.861Z,635.25
2022-12-29T01:02:02.900Z,634.95
2022-12-29T01:02:14.897Z,634.77
2022-12-29T01:02:26.004Z,634.52
2022-12-29T01:02:37.010Z,634.80
2022-12-29T01:02:47.884Z,634.38
2022-12-29T01:02:59.936Z,634.99
2022-12-29T01:03:10.763Z,634.72
2022-12-29T01:03:22.771Z,634.60
2022-12-29T01:03:33.779Z,634.44
2022-12-29T01:03:44.748Z,634.58
2022-12-29T01:04:00.227Z,634.29
2022-12-29T01:04:07.718Z,634.34
2022-12-29T01:04:17.766Z,634.44
2022-12-29T01:04:28.748Z,634.25
2022-12-29T01:04:39.830Z,634.44
2022-12-29T01:04:51.761Z,635.14
2022-12-29T01:05:02.836Z,634.89
2022-12-29T01:05:14.778Z,634.83
2022-12-29T01:05:25.747Z,634.78
2022-12-29T01:05:36.728Z,634.33
2022-12-29T01:05:48.755Z,634.28
2022-12-29T01:05:59.729Z,634.17
2022-12-29T01:06:10.792Z,634.12
2022-12-29T01:06:21.782Z,633.83
2022-12-29T01:06:32.766Z,634.10
2022-12-29T01:06:44.760Z,634.10
2022-12-29T01:06:55.765Z,634.13
2022-12-29T01:07:14.408Z,634.13
2022-12-29T01:07:17.732Z,634.03
2022-12-29T01:07:28.755Z,634.12
2022-12-29T01:07:39.739Z,634.20
2022-12-29T01:07:50.781Z,634.27
2022-12-29T01:08:01.777Z,634.66
2022-12-29T01:08:12.759Z,634.60
2022-12-29T01:09:30.747Z,633.48
2022-12-29T01:09:41.785Z,633.87
2022-12-29T01:09:53.746Z,634.11
2022-12-29T01:10:04.726Z,634.19
2022-12-29T01:10:15.811Z,634.45
2022-12-29T01:10:27.756Z,634.52
2022-12-29T01:10:38.732Z,634.44
2022-12-29T01:10:49.721Z,634.30
2022-12-29T01:11:00.736Z,634.52
2022-12-29T01:11:11.757Z,634.61
2022-12-29T01:11:22.764Z,634.70
2022-12-29T01:11:33.769Z,634.89
2022-12-29T01:11:45.784Z,634.85
2022-12-29T01:11:57.735Z,634.83
2022-12-29T01:12:08.750Z,634.72
2022-12-29T01:12:19.768Z,634.62
2022-12-29T01:12:30.765Z,634.40
2022-12-29T01:12:41.937Z,634.33
2022-12-29T01:12:52.739Z,634.37
2022-12-29T01:13:03.735Z,634.78
2022-12-29T01:13:14.745Z,634.46
2022-12-29T01:13:25.752Z,634.54
2022-12-29T01:13:36.726Z,634.87
2022-12-29T01:13:47.716Z,634.85
2022-12-29T01:13:58.727Z,634.94
2022-12-29T01:14:09.731Z,634.93
2022-12-29T01:14:20.734Z,634.65
2022-12-29T01:14:31.824Z,634.29
2022-12-29T01:14:43.775Z,634.09
2022-12-29T01:14:54.750Z,633.83
2022-12-29T01:15:05.722Z,633.92
2022-12-29T01:15:16.713Z,633.88
2022-12-29T01:15:27.812Z,634.04
2022-12-29T01:15:39.761Z,634.27
2022-12-29T01:15:50.805Z,634.38
2022-12-29T01:16:02.812Z,634.05
2022-12-29T01:16:14.852Z,634.43
2022-12-29T01:16:26.754Z,634.83
2022-12-29T01:16:37.803Z,634.46
2022-12-29T01:16:49.789Z,633.76
2022-12-29T01:17:01.759Z,634.10
2022-12-29T01:17:12.737Z,634.50
2022-12-29T01:17:23.748Z,634.63
2022-12-29T01:17:34.739Z,635.12
2022-12-29T01:17:45.799Z,635.03
2022-12-29T01:17:57.746Z,634.12
2022-12-29T01:18:08.742Z,634.81
2022-12-29T01:18:19.743Z,634.84
2022-12-29T01:18:30.810Z,635.31
2022-12-29T01:18:42.753Z,635.40
2022-12-29T01:18:53.760Z,635.41
2022-12-29T01:19:04.741Z,635.24
2022-12-29T01:19:15.740Z,635.62
2022-12-29T01:19:26.738Z,635.32
2022-12-29T01:19:37.822Z,635.04
2022-12-29T01:19:49.828Z,635.02
2022-12-29T01:20:01.774Z,634.47
2022-12-29T01:20:12.761Z,634.48
2022-12-29T01:20:23.781Z,634.70
2022-12-29T01:20:34.767Z,634.78
2022-12-29T01:20:45.743Z,634.78
2022-12-29T01:20:56.744Z,634.45
2022-12-29T01:21:07.728Z,634.77
2022-12-29T01:21:18.800Z,634.88
2022-12-29T01:21:30.766Z,635.15
2022-12-29T01:21:41.735Z,635.42
2022-12-29T01:21:52.716Z,635.83
2022-12-29T01:22:03.802Z,636.26
2022-12-29T01:22:14.765Z,635.85
2022-12-29T01:22:25.759Z,635.67
2022-12-29T01:22:36.760Z,635.44
2022-12-29T01:22:47.753Z,635.31
2022-12-29T01:22:58.730Z,635.06
2022-12-29T01:23:09.811Z,635.00
2022-12-29T01:23:21.756Z,634.86
2022-12-29T01:23:32.787Z,634.81
2022-12-29T01:23:44.753Z,634.89
2022-12-29T01:23:55.765Z,634.80
2022-12-29T01:24:06.764Z,634.79
2022-12-29T01:24:17.772Z,634.75
2022-12-29T01:24:29.742Z,634.79
2022-12-29T01:24:40.763Z,635.35
2022-12-29T01:24:51.736Z,635.36
2022-12-29T01:25:02.821Z,634.98
2022-12-29T01:25:14.779Z,634.97
2022-12-29T01:25:25.773Z,635.48
2022-12-29T01:25:36.763Z,635.67
2022-12-29T01:25:47.745Z,635.73
2022-12-29T01:25:58.742Z,635.48
2022-12-29T01:26:09.760Z,635.16
2022-12-29T01:26:20.733Z,635.81
2022-12-29T01:26:31.731Z,635.34
2022-12-29T01:26:42.768Z,635.34
2022-12-29T01:26:53.765Z,635.63
2022-12-29T01:27:04.734Z,635.54
2022-12-29T01:27:15.746Z,635.53
2022-12-29T01:27:26.737Z,635.05
2022-12-29T01:27:37.762Z,635.31
2022-12-29T01:27:48.764Z,635.09
2022-12-29T01:27:59.740Z,635.18
2022-12-29T01:28:10.721Z,635.08
2022-12-29T01:29:38.828Z,635.02
2022-12-29T01:29:50.769Z,634.91
2022-12-29T01:30:01.769Z,635.11
2022-12-29T01:31:23.372Z,635.13
2022-12-29T01:31:32.845Z,635.17
2022-12-29T01:31:44.777Z,635.00
2022-12-29T01:31:55.802Z,634.86
2022-12-29T01:32:06.737Z,634.48
2022-12-29T01:32:18.143Z,634.35
2022-12-29T01:32:28.784Z,634.51
2022-12-29T01:32:39.753Z,634.82
2022-12-29T01:32:50.747Z,635.05
2022-12-29T01:33:01.756Z,635.06
2022-12-29T01:33:12.757Z,634.88
2022-12-29T01:33:23.768Z,635.41
2022-12-29T01:33:34.763Z,635.41
2022-12-29T01:33:45.753Z,635.14
2022-12-29T01:33:56.718Z,635.20
2022-12-29T01:34:07.831Z,634.98
2022-12-29T01:34:19.767Z,634.58
2022-12-29T01:34:30.801Z,634.73
2022-12-29T01:34:41.776Z,635.11
2022-12-29T01:34:53.751Z,634.86
2022-12-29T01:35:04.718Z,634.81
2022-12-29T01:35:15.804Z,635.74
2022-12-29T01:35:27.770Z,635.40
2022-12-29T01:35:38.764Z,635.13
2022-12-29T01:35:49.816Z,635.21
2022-12-29T01:36:00.767Z,634.85
2022-12-29T01:36:11.761Z,635.10
2022-12-29T01:36:22.733Z,635.13
2022-12-29T01:36:33.736Z,635.09
2022-12-29T01:36:44.809Z,635.10
2022-12-29T01:36:56.765Z,635.90
2022-12-29T01:37:07.740Z,635.46
2022-12-29T01:37:18.740Z,635.35
2022-12-29T01:37:29.746Z,635.56
2022-12-29T01:37:40.721Z,635.89
2022-12-29T01:37:51.731Z,635.91
2022-12-29T01:38:02.801Z,635.54
2022-12-29T01:38:13.803Z,635.20
2022-12-29T01:38:25.781Z,635.46
2022-12-29T01:38:37.768Z,635.76
2022-12-29T01:38:48.743Z,635.59
2022-12-29T01:38:59.760Z,635.48
2022-12-29T01:39:10.759Z,635.65
2022-12-29T01:39:21.761Z,635.50
2022-12-29T01:39:32.760Z,635.98
2022-12-29T01:39:43.774Z,635.66
2022-12-29T01:39:54.765Z,635.46
2022-12-29T01:40:05.742Z,635.76
2022-12-29T01:40:16.749Z,636.03
2022-12-29T01:40:27.811Z,636.02
2022-12-29T01:40:39.804Z,635.98
2022-12-29T01:40:51.771Z,635.86
2022-12-29T01:41:03.737Z,635.94
2022-12-29T01:41:14.816Z,635.90
2022-12-29T01:41:26.750Z,636.03
2022-12-29T01:41:37.739Z,636.07
2022-12-29T01:41:48.751Z,635.93
2022-12-29T01:41:59.754Z,635.67
2022-12-29T01:42:11.790Z,635.61
2022-12-29T01:42:22.773Z,635.64
2022-12-29T01:42:33.774Z,635.48
2022-12-29T01:42:44.742Z,636.01
2022-12-29T01:42:55.742Z,636.37
2022-12-29T01:43:06.807Z,636.65
2022-12-29T01:43:18.815Z,636.74
2022-12-29T01:43:30.775Z,636.73
2022-12-29T01:43:41.765Z,636.70
2022-12-29T01:43:52.726Z,636.79
2022-12-29T01:44:03.814Z,636.59
2022-12-29T01:44:15.745Z,636.51
2022-12-29T01:44:27.761Z,636.40
2022-12-29T01:44:38.752Z,636.52
2022-12-29T01:44:49.770Z,636.43
2022-12-29T01:45:00.792Z,636.46
2022-12-29T01:45:11.762Z,636.48
2022-12-29T01:45:22.743Z,636.46
2022-12-29T01:45:33.770Z,636.77
2022-12-29T01:45:45.804Z,637.13
2022-12-29T01:45:56.827Z,637.54
2022-12-29T01:46:08.967Z,637.19
2022-12-29T01:46:19.856Z,637.15
2022-12-29T01:46:30.765Z,637.09
2022-12-29T01:46:41.765Z,637.20
2022-12-29T01:46:52.728Z,637.26
2022-12-29T01:47:03.744Z,637.17
2022-12-29T01:47:14.809Z,636.83
2022-12-29T01:47:26.752Z,636.96
2022-12-29T01:47:37.730Z,637.21
2022-12-29T01:47:48.821Z,636.95
2022-12-29T01:48:00.771Z,637.17
2022-12-29T01:48:11.754Z,637.18
2022-12-29T01:48:22.754Z,637.12
2022-12-29T01:48:33.736Z,636.99
2022-12-29T01:48:44.718Z,636.52
2022-12-29T01:48:55.743Z,637.02
2022-12-29T01:49:06.737Z,636.93
2022-12-29T01:49:17.773Z,636.84
2022-12-29T01:49:28.776Z,636.90
2022-12-29T01:49:39.750Z,637.14
2022-12-29T01:49:50.745Z,636.97
2022-12-29T01:50:01.769Z,636.91
2022-12-29T01:50:12.773Z,637.13
2022-12-29T01:50:23.769Z,637.26
2022-12-29T01:50:34.785Z,637.22
2022-12-29T01:50:45.747Z,637.20
2022-12-29T01:50:56.754Z,637.26
2022-12-29T01:51:07.732Z,637.63
2022-12-29T01:51:18.721Z,637.90
2022-12-29T01:51:29.730Z,637.94
2022-12-29T01:51:40.738Z,638.06
2022-12-29T01:51:51.743Z,638.20
2022-12-29T01:52:02.724Z,638.26
2022-12-29T01:52:13.755Z,638.17
2022-12-29T01:52:24.804Z,638.14
2022-12-29T01:52:36.770Z,638.27
2022-12-29T01:52:47.737Z,638.26
2022-12-29T01:52:58.786Z,638.36
2022-12-29T01:53:09.758Z,638.64
2022-12-29T01:53:20.746Z,638.65
2022-12-29T01:53:31.756Z,638.45
2022-12-29T01:53:42.708Z,638.50
2022-12-29T01:53:53.791Z,638.32
2022-12-29T01:54:04.763Z,638.49
2022-12-29T01:54:15.787Z,638.51
2022-12-29T01:54:26.786Z,638.12
2022-12-29T01:54:38.776Z,638.17
2022-12-29T01:54:49.746Z,638.17
2022-12-29T01:55:01.751Z,637.90
2022-12-29T01:55:12.737Z,637.43
2022-12-29T01:55:23.762Z,638.22
2022-12-29T01:55:34.750Z,637.89
2022-12-29T01:55:45.789Z,637.54
2022-12-29T01:55:57.732Z,637.32
2022-12-29T01:56:08.751Z,637.32
2022-12-29T01:56:19.768Z,637.17
2022-12-29T01:56:30.757Z,637.06
2022-12-29T01:56:42.744Z,637.40
2022-12-29T01:56:53.743Z,637.34
2022-12-29T01:57:04.729Z,637.25
2022-12-29T01:57:15.801Z,637.38
2022-12-29T01:57:27.778Z,637.19
2022-12-29T01:57:39.746Z,637.46
2022-12-29T01:57:50.728Z,638.02
2022-12-29T01:58:01.822Z,638.06
2022-12-29T01:58:12.809Z,638.25
2022-12-29T01:58:24.784Z,638.30
2022-12-29T01:58:35.769Z,638.17
2022-12-29T01:58:47.746Z,638.13
2022-12-29T01:58:58.725Z,638.10
2022-12-29T01:59:09.700Z,638.14
2022-12-29T01:59:20.751Z,638.15
2022-12-29T01:59:31.730Z,638.20
2022-12-29T01:59:42.742Z,638.21
2022-12-29T01:59:53.760Z,638.04
2022-12-29T02:00:04.748Z,638.22
2022-12-29T02:00:15.747Z,638.07
2022-12-29T02:00:26.737Z,638.02
2022-12-29T02:00:37.764Z,637.77
2022-12-29T02:00:49.832Z,637.60
2022-12-29T02:01:00.830Z,637.67
2022-12-29T02:01:11.766Z,637.70
2022-12-29T02:01:23.857Z,637.89
2022-12-29T02:01:35.030Z,637.94
2022-12-29T02:01:46.867Z,638.45
2022-12-29T02:01:57.778Z,638.60
2022-12-29T02:02:08.865Z,638.45
2022-12-29T02:02:20.776Z,638.73
2022-12-29T02:02:33.614Z,638.83
2022-12-29T02:02:43.941Z,638.93
2022-12-29T02:02:54.806Z,639.02
2022-12-29T02:03:05.776Z,638.74
2022-12-29T02:03:16.795Z,638.73
2022-12-29T02:03:27.891Z,638.80
2022-12-29T02:03:38.813Z,638.73
2022-12-29T02:03:49.751Z,638.73
2022-12-29T02:04:00.743Z,638.44
2022-12-29T02:04:11.724Z,638.44
2022-12-29T02:04:22.712Z,638.51
2022-12-29T02:04:33.799Z,638.43
2022-12-29T02:04:45.771Z,638.35
2022-12-29T02:05:01.426Z,638.47
2022-12-29T02:05:09.757Z,638.49
2022-12-29T02:05:19.762Z,638.32
2022-12-29T02:05:31.733Z,638.29
2022-12-29T02:05:42.727Z,638.27
2022-12-29T02:05:53.800Z,638.12
2022-12-29T02:06:05.770Z,638.19
2022-12-29T02:06:16.760Z,638.05
2022-12-29T02:06:28.755Z,638.54
2022-12-29T02:06:39.734Z,638.65
2022-12-29T02:06:50.806Z,638.49
2022-12-29T02:07:02.770Z,638.43
2022-12-29T02:07:13.770Z,638.23
2022-12-29T02:07:25.733Z,638.40
2022-12-29T02:07:36.756Z,638.74
2022-12-29T02:07:47.779Z,638.68
2022-12-29T02:07:58.766Z,638.27
2022-12-29T02:08:09.748Z,638.67
2022-12-29T02:08:20.740Z,638.84
2022-12-29T02:08:31.736Z,639.01
2022-12-29T02:08:42.742Z,638.67
2022-12-29T02:08:53.751Z,638.78
2022-12-29T02:09:04.757Z,638.51
2022-12-29T02:09:15.754Z,638.30
2022-12-29T02:09:26.781Z,638.43
2022-12-29T02:09:38.739Z,637.97
2022-12-29T02:09:49.822Z,638.52
2022-12-29T02:10:01.808Z,638.22
2022-12-29T02:10:13.806Z,638.29
2022-12-29T02:10:25.718Z,638.67
2022-12-29T02:10:36.823Z,638.72
2022-12-29T02:10:48.789Z,638.73
2022-12-29T02:11:00.772Z,638.44
2022-12-29T02:11:11.807Z,638.43
2022-12-29T02:11:23.750Z,638.83
2022-12-29T02:11:34.731Z,639.08
2022-12-29T02:11:45.820Z,638.73
2022-12-29T02:11:57.767Z,638.62
2022-12-29T02:12:08.743Z,638.37
2022-12-29T02:12:19.756Z,638.55
2022-12-29T02:12:30.752Z,638.52
2022-12-29T02:12:41.729Z,638.43
2022-12-29T02:12:52.757Z,638.10
2022-12-29T02:13:03.751Z,638.32
2022-12-29T02:13:14.737Z,638.74
2022-12-29T02:13:25.725Z,638.64
2022-12-29T02:13:36.740Z,638.64
2022-12-29T02:13:47.716Z,638.76
2022-12-29T02:14:03.190Z,638.63
2022-12-29T02:14:09.728Z,638.43
2022-12-29T02:14:20.811Z,638.16
2022-12-29T02:14:32.747Z,638.58
2022-12-29T02:14:43.755Z,638.43
2022-12-29T02:17:41.021Z,638.33
2022-12-29T02:17:51.742Z,638.40
2022-12-29T02:18:02.735Z,638.20
2022-12-29T02:18:13.765Z,638.32
2022-12-29T02:18:24.814Z,638.38
2022-12-29T02:18:36.771Z,638.24
2022-12-29T02:18:47.766Z,638.16
2022-12-29T02:18:58.748Z,638.46
2022-12-29T02:19:09.752Z,638.39
2022-12-29T02:19:20.751Z,638.36
2022-12-29T02:19:31.741Z,638.55
2022-12-29T02:19:42.760Z,638.35
2022-12-29T02:19:53.746Z,638.39
2022-12-29T02:20:04.762Z,638.34
2022-12-29T02:20:15.746Z,638.38
2022-12-29T02:20:26.777Z,638.30
2022-12-29T02:20:37.765Z,638.61
2022-12-29T02:20:48.768Z,638.66
2022-12-29T02:20:59.750Z,638.64
2022-12-29T02:21:10.738Z,638.88
2022-12-29T02:21:21.806Z,639.05
2022-12-29T02:22:47.753Z,639.42
2022-12-29T02:22:58.724Z,639.21
2022-12-29T02:23:09.798Z,638.84
2022-12-29T02:23:20.766Z,639.20
2022-12-29T02:23:31.752Z,639.06
2022-12-29T02:23:42.715Z,639.08
2022-12-29T02:23:53.780Z,638.96
2022-12-29T02:24:04.742Z,639.32
2022-12-29T02:24:16.765Z,639.61
2022-12-29T02:24:28.794Z,639.26
2022-12-29T02:24:40.803Z,639.07
2022-12-29T02:24:52.749Z,639.26
2022-12-29T02:25:03.743Z,639.13
2022-12-29T02:25:14.810Z,638.90
2022-12-29T02:25:26.740Z,639.24
2022-12-29T02:25:37.799Z,639.24
2022-12-29T02:25:48.791Z,639.39
2022-12-29T02:25:59.753Z,639.18
2022-12-29T02:26:10.730Z,639.34
2022-12-29T02:26:21.787Z,639.50
2022-12-29T02:26:32.754Z,639.82
2022-12-29T02:26:43.732Z,638.78
2022-12-29T02:26:54.812Z,639.10
2022-12-29T02:27:06.741Z,639.47
2022-12-29T02:27:18.757Z,639.29
2022-12-29T02:27:29.733Z,639.12
2022-12-29T02:27:40.805Z,638.94
2022-12-29T02:27:52.717Z,638.86
2022-12-29T02:28:03.793Z,638.98
2022-12-29T02:28:14.755Z,639.06
2022-12-29T02:28:25.771Z,638.86
2022-12-29T02:28:36.739Z,639.23
2022-12-29T02:28:47.812Z,639.06